createdAt,value
2022-10-13T12:53:51.409Z,11.00
2022-10-13T12:56:31.231Z,7.67
2022-10-13T12:59:00.881Z,9.00
2022-10-13T13:01:36.890Z,7.00
2022-10-13T13:04:21.295Z,10.00
2022-10-13T13:07:00.729Z,10.00
2022-10-13T13:09:34.496Z,6.33
2022-10-13T13:12:11.102Z,9.67
2022-10-13T13:14:43.306Z,12.00
2022-10-13T13:17:27.639Z,9.00
2022-10-13T13:20:40.571Z,9.33
2022-10-13T13:23:08.523Z,8.00
2022-10-13T13:25:44.792Z,10.00
2022-10-13T13:28:33.986Z,6.50
2022-10-13T13:31:05.502Z,5.50
2022-10-13T13:33:41.773Z,13.00
2022-10-13T13:36:20.802Z,8.00
2022-10-13T13:38:59.737Z,10.00
2022-10-13T13:41:31.323Z,8.00
2022-10-13T13:44:00.084Z,12.00
2022-10-13T13:46:36.238Z,11.50
2022-10-13T13:49:11.754Z,12.00
2022-10-13T13:51:39.665Z,8.50
2022-10-13T13:54:08.420Z,10.50
2022-10-13T13:56:36.468Z,9.33
2022-10-13T13:59:12.725Z,7.67
2022-10-13T14:01:41.476Z,8.00
2022-10-13T14:04:43.416Z,9.00
2022-10-13T14:07:13.757Z,10.67
2022-10-13T14:10:14.852Z,9.67
2022-10-13T14:12:44.772Z,10.00
2022-10-13T14:15:19.736Z,10.33
2022-10-13T14:17:48.599Z,10.00
2022-10-13T14:20:16.351Z,10.00
2022-10-13T14:22:56.915Z,7.33
2022-10-13T14:25:25.987Z,8.33
2022-10-13T14:27:54.839Z,10.33
2022-10-13T14:30:23.801Z,10.33
2022-10-13T14:32:54.724Z,9.00
2022-10-13T14:35:27.666Z,11.67
2022-10-13T14:37:56.503Z,12.67
2022-10-13T14:40:25.307Z,12.50
2022-10-13T14:42:53.882Z,10.33
2022-10-13T14:45:21.686Z,11.00
2022-10-13T14:47:55.716Z,10.00
2022-10-13T14:50:31.951Z,14.00
2022-10-13T14:53:01.741Z,12.67
2022-10-13T14:55:32.230Z,11.00
2022-10-13T14:58:09.888Z,15.67
2022-10-13T15:01:11.795Z,13.67
2022-10-13T15:03:45.590Z,13.00
2022-10-13T15:06:20.372Z,13.67
2022-10-13T15:08:49.688Z,11.00
2022-10-13T15:11:20.580Z,12.00
2022-10-13T15:13:50.686Z,11.50
2022-10-13T15:16:22.609Z,10.33
2022-10-13T15:18:54.953Z,9.50
2022-10-13T15:21:24.513Z,9.50
2022-10-13T15:23:57.389Z,11.00
2022-10-13T15:26:27.272Z,12.00
2022-10-13T15:28:55.171Z,3.00
2022-10-13T15:31:25.233Z,8.67
2022-10-13T15:33:55.166Z,9.00
2022-10-13T15:36:26.188Z,8.00
2022-10-13T15:38:56.147Z,11.00
2022-10-13T15:41:33.789Z,10.67
2022-10-13T15:44:03.238Z,11.67
2022-10-13T15:46:32.113Z,12.33
2022-10-13T15:49:04.668Z,12.67
2022-10-13T15:51:35.659Z,16.00
2022-10-13T15:54:05.639Z,11.00
2022-10-13T15:56:41.855Z,16.00
2022-10-13T15:59:49.809Z,14.50
2022-10-13T16:02:19.114Z,15.33
2022-10-13T16:04:57.387Z,13.00
2022-10-13T16:07:25.094Z,13.00
2022-10-13T16:09:57.853Z,12.00
2022-10-13T16:12:28.814Z,18.00
2022-10-13T16:15:04.168Z,16.33
2022-10-13T16:17:33.478Z,15.00
2022-10-13T16:20:04.163Z,21.00
2022-10-13T16:22:39.290Z,21.67
2022-10-13T16:25:48.610Z,20.33
2022-10-13T16:28:49.737Z,18.67
2022-10-13T16:31:24.751Z,17.67
2022-10-13T16:33:58.706Z,21.67
2022-10-13T16:36:30.664Z,20.67
2022-10-13T16:39:02.803Z,22.33
2022-10-13T16:42:02.331Z,25.00
2022-10-13T16:44:31.308Z,20.67
2022-10-13T16:47:00.763Z,20.67
2022-10-13T16:49:35.063Z,23.67
2022-10-13T16:52:03.318Z,28.33
2022-10-13T16:54:39.744Z,28.67
2022-10-13T16:57:07.457Z,28.00
2022-10-13T16:59:37.404Z,28.33
2022-10-13T17:02:27.461Z,26.00
2022-10-13T17:05:27.782Z,24.33
2022-10-13T17:07:57.406Z,25.50
2022-10-13T17:11:02.019Z,26.33
2022-10-13T17:13:38.178Z,29.33
2022-10-13T17:16:15.269Z,30.67
2022-10-13T17:18:48.105Z,27.50
2022-10-13T17:21:26.757Z,25.67
2022-10-13T17:23:57.348Z,24.67
2022-10-13T17:26:35.376Z,25.00
2022-10-13T17:29:03.496Z,24.33
2022-10-13T17:31:31.402Z,22.33
2022-10-13T17:34:09.414Z,24.33
2022-10-13T17:37:12.330Z,24.33
2022-10-13T17:39:45.887Z,25.00
2022-10-13T17:42:24.818Z,25.00
2022-10-13T17:44:58.917Z,24.67
2022-10-13T17:47:35.851Z,18.33
2022-10-13T17:50:06.301Z,24.67
2022-10-13T17:52:34.243Z,21.00
2022-10-13T17:55:02.407Z,23.00
2022-10-13T17:57:31.668Z,24.33
2022-10-13T18:00:06.874Z,22.00
2022-10-13T18:02:41.386Z,22.33
2022-10-13T18:05:09.688Z,23.00
2022-10-13T18:07:39.132Z,22.00
2022-10-13T18:10:13.578Z,21.33
2022-10-13T18:12:42.923Z,24.33
2022-10-13T18:15:14.212Z,23.50
2022-10-13T18:17:51.833Z,24.33
2022-10-13T18:20:24.960Z,25.33
2022-10-13T18:22:58.301Z,21.33
2022-10-13T18:25:38.844Z,19.00
2022-10-13T18:28:06.887Z,23.00
2022-10-13T18:30:38.545Z,24.00
2022-10-13T18:33:11.087Z,22.33
2022-10-13T18:35:43.032Z,21.67
2022-10-13T18:38:24.376Z,26.50
2022-10-13T18:41:04.859Z,25.50
2022-10-13T18:44:53.031Z,24.00
2022-10-13T18:47:05.755Z,24.67
2022-10-13T18:49:40.008Z,28.00
2022-10-13T18:52:13.023Z,24.33
2022-10-13T18:54:48.330Z,25.00
2022-10-13T18:57:19.761Z,20.33
2022-10-13T18:59:58.073Z,26.00
2022-10-13T19:02:34.801Z,25.50
2022-10-13T19:05:11.415Z,21.00
2022-10-13T19:07:44.322Z,25.33
2022-10-13T19:10:28.734Z,25.00
2022-10-13T19:13:24.239Z,24.33
2022-10-13T19:16:08.714Z,24.00
2022-10-13T19:18:45.835Z,23.67
2022-10-13T19:21:24.214Z,25.50
2022-10-13T19:24:03.968Z,21.00
2022-10-13T19:26:52.507Z,23.67
2022-10-13T19:29:47.963Z,21.50
2022-10-13T19:32:18.749Z,24.33
2022-10-13T19:34:53.017Z,22.67
2022-10-13T19:37:28.808Z,22.00
2022-10-13T19:40:00.694Z,21.00
2022-10-13T19:42:29.643Z,21.00
2022-10-13T19:45:01.839Z,20.67
2022-10-13T19:47:39.287Z,21.00
2022-10-13T19:50:08.277Z,24.33
2022-10-13T19:52:39.759Z,23.50
2022-10-13T19:55:10.200Z,18.50
2022-10-13T19:57:38.951Z,21.33
2022-10-13T20:00:08.364Z,22.00
2022-10-13T20:02:41.505Z,22.00
2022-10-13T20:05:09.323Z,23.67
2022-10-13T20:07:39.122Z,21.00
2022-10-13T20:10:07.099Z,24.67
2022-10-13T20:12:39.436Z,23.00
2022-10-13T20:15:08.129Z,22.67
2022-10-13T20:17:37.167Z,24.67
2022-10-13T20:20:06.691Z,23.00
2022-10-13T20:22:34.647Z,22.50
2022-10-13T20:25:02.588Z,24.00
2022-10-13T20:27:30.432Z,22.33
2022-10-13T20:29:58.180Z,25.33
2022-10-13T20:32:26.940Z,25.67
2022-10-13T20:34:54.733Z,24.00
2022-10-13T20:37:22.882Z,25.00
2022-10-13T20:39:52.159Z,25.00
2022-10-13T20:42:20.966Z,23.00
2022-10-13T20:44:48.657Z,22.00
2022-10-13T20:47:16.448Z,23.00
2022-10-13T20:49:45.228Z,23.33
2022-10-13T20:52:15.722Z,22.00
2022-10-13T20:54:46.077Z,24.00
2022-10-13T20:57:15.013Z,21.33
2022-10-13T20:59:44.498Z,20.33
2022-10-13T21:02:13.334Z,24.33
2022-10-13T21:04:41.451Z,25.50
2022-10-13T21:07:09.287Z,27.00
2022-10-13T21:09:37.222Z,27.00
2022-10-13T21:12:05.182Z,26.00
2022-10-13T21:14:33.030Z,25.00
2022-10-13T21:17:01.120Z,24.00
2022-10-13T21:19:29.350Z,23.00
2022-10-13T21:21:57.731Z,25.00
2022-10-13T21:24:25.802Z,25.00
2022-10-13T21:26:54.603Z,25.67
2022-10-13T21:29:22.792Z,22.33
2022-10-13T21:31:50.565Z,23.00
2022-10-13T21:34:18.388Z,21.67
2022-10-13T21:36:47.279Z,23.67
2022-10-13T21:39:15.106Z,26.33
2022-10-13T21:41:44.365Z,27.33
2022-10-13T21:44:14.886Z,27.00
2022-10-13T21:46:42.823Z,27.33
2022-10-13T21:49:11.683Z,25.33
2022-10-13T21:51:41.194Z,25.00
2022-10-13T21:54:12.209Z,27.00
2022-10-13T21:56:41.256Z,27.00
2022-10-13T21:59:12.337Z,24.67
2022-10-13T22:01:40.211Z,25.33
2022-10-13T22:04:14.621Z,22.50
2022-10-13T22:06:44.105Z,24.67
2022-10-13T22:09:13.340Z,25.00
2022-10-13T22:11:42.306Z,24.33
2022-10-13T22:14:13.458Z,18.00
2022-10-13T22:16:45.342Z,26.33
2022-10-13T22:19:16.082Z,25.33
2022-10-13T22:21:46.624Z,25.33
2022-10-13T22:24:17.573Z,23.67
2022-10-13T22:26:48.481Z,24.33
2022-10-13T22:29:20.468Z,22.33
2022-10-13T22:31:54.743Z,23.33
2022-10-13T22:34:24.491Z,24.33
2022-10-13T22:36:54.723Z,24.00
2022-10-13T22:39:23.411Z,23.67
2022-10-13T22:41:56.150Z,22.33
2022-10-13T22:44:23.998Z,25.33
2022-10-13T22:46:51.829Z,24.33
2022-10-13T22:49:19.543Z,22.00
2022-10-13T22:51:47.316Z,23.33
2022-10-13T22:54:15.129Z,24.33
2022-10-13T22:56:43.900Z,22.33
2022-10-13T22:59:13.132Z,24.00
2022-10-13T23:01:40.995Z,22.33
2022-10-13T23:04:09.311Z,22.00
2022-10-13T23:06:37.243Z,22.00
2022-10-13T23:09:12.342Z,23.00
2022-10-13T23:11:40.537Z,21.50
2022-10-13T23:14:09.637Z,22.50
2022-10-13T23:16:37.785Z,24.00
2022-10-13T23:19:06.827Z,24.33
2022-10-13T23:21:35.928Z,25.33
2022-10-13T23:24:06.351Z,21.00
2022-10-13T23:26:35.389Z,22.00
2022-10-13T23:29:05.029Z,22.67
2022-10-13T23:31:33.528Z,25.00
2022-10-13T23:34:02.698Z,25.00
2022-10-13T23:36:32.614Z,24.33
2022-10-13T23:39:04.727Z,23.67
2022-10-13T23:41:34.420Z,23.67
2022-10-13T23:44:02.683Z,22.00
2022-10-13T23:46:32.671Z,24.33
2022-10-13T23:49:00.583Z,23.00
2022-10-13T23:51:28.539Z,23.33
2022-10-13T23:53:56.773Z,23.00
2022-10-13T23:56:25.366Z,21.67
2022-10-13T23:58:53.262Z,21.67
